createdAt,value
2023-01-29T00:01:59.125Z,-1.17
2023-01-29T00:04:26.889Z,-1.23
2023-01-29T00:06:53.790Z,-1.29
2023-01-29T00:09:20.535Z,-1.34
2023-01-29T00:11:47.595Z,-1.38
2023-01-29T00:14:15.112Z,-1.43
2023-01-29T00:16:45.559Z,-1.45
2023-01-29T00:19:12.595Z,-1.49
2023-01-29T00:21:39.584Z,-1.50
2023-01-29T00:24:06.592Z,-1.49
2023-01-29T00:26:33.524Z,-1.46
2023-01-29T00:29:03.472Z,-1.44
2023-01-29T00:31:30.535Z,-1.40
2023-01-29T00:33:57.514Z,-1.36
2023-01-29T00:36:25.655Z,-1.32
2023-01-29T00:38:58.743Z,-1.30
2023-01-29T00:41:48.340Z,-1.30
2023-01-29T00:44:33.863Z,-1.36
2023-01-29T00:47:02.290Z,-1.43
2023-01-29T00:49:30.575Z,-1.50
2023-01-29T00:52:17.050Z,-1.61
2023-01-29T00:54:43.865Z,-1.69
2023-01-29T00:57:10.763Z,-1.74
2023-01-29T00:59:38.073Z,-1.84
2023-01-29T01:02:23.646Z,-1.91
2023-01-29T01:04:50.616Z,-1.98
2023-01-29T01:07:17.541Z,-2.04
2023-01-29T01:10:05.047Z,-2.11
2023-01-29T01:12:32.167Z,-2.14
2023-01-29T01:14:59.303Z,-2.16
2023-01-29T01:17:26.212Z,-2.15
2023-01-29T01:19:53.156Z,-2.13
2023-01-29T01:22:20.335Z,-2.11
2023-01-29T01:24:47.395Z,-2.09
2023-01-29T01:27:14.415Z,-2.04
2023-01-29T01:29:41.728Z,-1.98
2023-01-29T01:32:09.326Z,-1.95
2023-01-29T01:34:36.716Z,-1.89
2023-01-29T01:37:04.745Z,-1.83
2023-01-29T01:39:33.126Z,-1.76
2023-01-29T01:42:00.086Z,-1.71
2023-01-29T01:44:45.695Z,-1.68
2023-01-29T01:47:12.913Z,-1.66
2023-01-29T01:49:40.569Z,-1.64
2023-01-29T01:52:08.497Z,-1.63
2023-01-29T01:54:37.029Z,-1.62
2023-01-29T01:57:16.013Z,-1.64
2023-01-29T01:59:49.173Z,-1.62
2023-01-29T02:02:36.267Z,-1.62
2023-01-29T02:05:21.853Z,-1.62
2023-01-29T02:08:09.013Z,-1.62
2023-01-29T02:10:38.391Z,-1.59
2023-01-29T02:13:06.532Z,-1.57
2023-01-29T02:15:33.602Z,-1.56
2023-01-29T02:18:02.376Z,-1.54
2023-01-29T02:20:37.003Z,-1.51
2023-01-29T02:23:23.563Z,-1.54
2023-01-29T02:26:11.796Z,-1.54
2023-01-29T02:29:18.913Z,-1.52
2023-01-29T02:31:48.412Z,-1.50
2023-01-29T02:34:32.594Z,-1.51
2023-01-29T02:37:09.631Z,-1.51
2023-01-29T02:40:04.223Z,-1.50
2023-01-29T02:42:37.038Z,-1.49
2023-01-29T02:45:26.180Z,-1.50
2023-01-29T02:48:00.979Z,-1.49
2023-01-29T02:50:30.756Z,-1.50
2023-01-29T02:53:09.780Z,-1.53
2023-01-29T02:55:47.293Z,-1.56
2023-01-29T02:58:17.830Z,-1.57
2023-01-29T03:00:46.114Z,-1.58
2023-01-29T03:03:17.437Z,-1.58
2023-01-29T03:05:55.215Z,-1.61
2023-01-29T03:08:37.272Z,-1.62
2023-01-29T03:11:08.501Z,-1.59
2023-01-29T03:13:42.017Z,-1.58
2023-01-29T03:16:19.420Z,-1.58
2023-01-29T03:18:54.066Z,-1.54
2023-01-29T03:21:43.640Z,-1.49
2023-01-29T03:24:32.850Z,-1.48
2023-01-29T03:27:20.673Z,-1.45
2023-01-29T03:30:08.253Z,-1.46
2023-01-29T03:32:54.199Z,-1.47
2023-01-29T03:35:38.539Z,-1.51
2023-01-29T03:38:10.449Z,-1.50
2023-01-29T03:40:58.570Z,-1.49
2023-01-29T03:43:35.919Z,-1.48
2023-01-29T03:46:08.806Z,-1.46
2023-01-29T03:48:50.873Z,-1.45
2023-01-29T03:51:41.859Z,-1.44
2023-01-29T03:54:35.189Z,-1.44
2023-01-29T03:57:28.637Z,-1.45
2023-01-29T04:00:09.311Z,-1.44
2023-01-29T04:03:00.442Z,-1.45
2023-01-29T04:05:30.163Z,-1.46
2023-01-29T04:08:14.751Z,-1.48
2023-01-29T04:10:43.591Z,-1.49
2023-01-29T04:13:12.161Z,-1.49
2023-01-29T04:15:46.510Z,-1.51
2023-01-29T04:18:13.694Z,-1.52
2023-01-29T04:21:09.655Z,-1.52
2023-01-29T04:23:36.500Z,-1.51
2023-01-29T04:26:09.672Z,-1.51
2023-01-29T04:28:47.365Z,-1.48
2023-01-29T04:31:14.669Z,-1.48
2023-01-29T04:33:56.869Z,-1.47
2023-01-29T04:36:42.608Z,-1.47
2023-01-29T04:39:17.550Z,-1.46
2023-01-29T04:41:54.726Z,-1.45
2023-01-29T04:44:34.265Z,-1.43
2023-01-29T04:47:06.186Z,-1.44
2023-01-29T04:49:36.328Z,-1.44
2023-01-29T04:52:03.140Z,-1.46
2023-01-29T04:54:33.003Z,-1.46
2023-01-29T04:57:23.347Z,-1.47
2023-01-29T05:00:10.398Z,-1.46
2023-01-29T05:02:38.420Z,-1.47
2023-01-29T05:05:06.321Z,-1.47
2023-01-29T05:07:36.220Z,-1.48
2023-01-29T05:10:04.658Z,-1.48
2023-01-29T05:12:31.593Z,-1.47
2023-01-29T05:15:01.184Z,-1.48
2023-01-29T05:17:28.320Z,-1.49
2023-01-29T05:19:57.352Z,-1.51
2023-01-29T05:22:26.864Z,-1.51
2023-01-29T05:24:53.700Z,-1.50
2023-01-29T05:27:41.226Z,-1.51
2023-01-29T05:30:09.400Z,-1.49
2023-01-29T05:32:36.315Z,-1.48
2023-01-29T05:35:03.350Z,-1.49
2023-01-29T05:37:30.242Z,-1.50
2023-01-29T05:39:57.309Z,-1.51
2023-01-29T05:42:24.409Z,-1.52
2023-01-29T05:44:51.314Z,-1.52
2023-01-29T05:47:21.374Z,-1.54
2023-01-29T05:49:48.243Z,-1.53
2023-01-29T05:52:20.858Z,-1.53
2023-01-29T05:54:48.372Z,-1.53
2023-01-29T05:57:18.535Z,-1.52
2023-01-29T05:59:45.596Z,-1.52
2023-01-29T06:02:12.616Z,-1.53
2023-01-29T06:04:39.625Z,-1.52
2023-01-29T06:07:06.594Z,-1.52
2023-01-29T06:09:33.501Z,-1.54
2023-01-29T06:12:00.330Z,-1.56
2023-01-29T06:14:29.074Z,-1.57
2023-01-29T06:16:55.974Z,-1.58
2023-01-29T06:19:22.903Z,-1.55
2023-01-29T06:21:49.761Z,-1.52
2023-01-29T06:24:16.772Z,-1.50
2023-01-29T06:27:08.667Z,-1.49
2023-01-29T06:29:36.681Z,-1.47
2023-01-29T06:32:03.676Z,-1.49
2023-01-29T06:34:30.549Z,-1.50
2023-01-29T06:36:57.568Z,-1.47
2023-01-29T06:39:28.499Z,-1.43
2023-01-29T06:41:55.290Z,-1.41
2023-01-29T06:44:22.974Z,-1.37
2023-01-29T06:46:49.768Z,-1.36
2023-01-29T06:49:16.729Z,-1.32
2023-01-29T06:51:43.576Z,-1.30
2023-01-29T06:54:11.009Z,-1.26
2023-01-29T06:56:37.889Z,-1.24
2023-01-29T06:59:04.797Z,-1.22
2023-01-29T07:01:36.039Z,-1.21
2023-01-29T07:04:03.877Z,-1.20
2023-01-29T07:06:30.879Z,-1.17
2023-01-29T07:08:57.855Z,-1.15
2023-01-29T07:11:24.829Z,-1.12
2023-01-29T07:13:51.760Z,-1.11
2023-01-29T07:16:19.465Z,-1.09
2023-01-29T07:18:46.826Z,-1.06
2023-01-29T07:21:13.800Z,-1.05
2023-01-29T07:23:40.833Z,-1.02
2023-01-29T07:26:07.676Z,-1.04
2023-01-29T07:28:43.490Z,-1.05
2023-01-29T07:31:13.690Z,-1.05
2023-01-29T07:33:40.669Z,-1.03
2023-01-29T07:36:12.370Z,-1.00
2023-01-29T07:38:39.798Z,-0.96
2023-01-29T07:41:08.371Z,-0.90
2023-01-29T07:43:35.750Z,-0.84
2023-01-29T07:46:04.152Z,-0.80
2023-01-29T07:48:31.828Z,-0.73
2023-01-29T07:50:59.375Z,-0.70
2023-01-29T07:53:27.185Z,-0.68
2023-01-29T07:55:57.722Z,-0.63
2023-01-29T07:58:24.861Z,-0.58
2023-01-29T08:00:51.803Z,-0.53
2023-01-29T08:03:20.389Z,-0.44
2023-01-29T08:05:47.586Z,-0.40
2023-01-29T08:08:14.879Z,-0.37
2023-01-29T08:10:42.239Z,-0.36
2023-01-29T08:13:11.406Z,-0.33
2023-01-29T08:15:39.383Z,-0.32
2023-01-29T08:18:06.772Z,-0.26
2023-01-29T08:20:33.798Z,-0.23
2023-01-29T08:23:02.053Z,-0.19
2023-01-29T08:25:29.623Z,-0.14
2023-01-29T08:28:00.984Z,-0.09
2023-01-29T08:30:29.735Z,-0.08
2023-01-29T08:32:56.694Z,-0.05
2023-01-29T08:35:24.172Z,-0.05
2023-01-29T08:38:04.072Z,-0.02
2023-01-29T08:40:32.472Z,-0.01
2023-01-29T08:43:02.150Z,-0.03
2023-01-29T08:45:30.485Z,-0.07
2023-01-29T08:47:57.529Z,-0.09
2023-01-29T08:50:24.679Z,-0.10
2023-01-29T08:53:08.252Z,-0.14
2023-01-29T08:55:36.808Z,-0.16
2023-01-29T08:58:08.050Z,-0.16
2023-01-29T09:00:35.279Z,-0.18
2023-01-29T09:03:02.385Z,-0.18
2023-01-29T09:05:29.713Z,-0.20
2023-01-29T09:08:06.997Z,-0.20
2023-01-29T09:10:34.607Z,-0.19
2023-01-29T09:13:01.797Z,-0.22
2023-01-29T09:15:28.735Z,-0.26
2023-01-29T09:17:57.613Z,-0.34
2023-01-29T09:20:24.709Z,-0.42
2023-01-29T09:22:53.804Z,-0.46
2023-01-29T09:25:20.873Z,-0.50
2023-01-29T09:27:48.889Z,-0.47
2023-01-29T09:30:16.289Z,-0.44
2023-01-29T09:32:53.032Z,-0.42
2023-01-29T09:35:20.685Z,-0.38
2023-01-29T09:37:48.345Z,-0.36
2023-01-29T09:40:26.902Z,-0.35
2023-01-29T09:42:57.829Z,-0.33
2023-01-29T09:45:26.905Z,-0.25
2023-01-29T09:47:56.493Z,-0.20
2023-01-29T09:50:38.661Z,-0.22
2023-01-29T09:53:05.940Z,-0.23
2023-01-29T09:55:51.890Z,-0.25
2023-01-29T09:58:27.560Z,-0.29
2023-01-29T10:00:54.524Z,-0.30
2023-01-29T10:03:39.917Z,-0.32
2023-01-29T10:06:25.704Z,-0.31
2023-01-29T10:08:55.711Z,-0.31
2023-01-29T10:11:28.713Z,-0.32
2023-01-29T10:14:11.110Z,-0.35
2023-01-29T10:16:54.479Z,-0.36
2023-01-29T10:19:36.134Z,-0.41
2023-01-29T10:22:08.403Z,-0.36
2023-01-29T10:24:53.909Z,-0.34
2023-01-29T10:27:21.923Z,-0.40
2023-01-29T10:29:54.701Z,-0.39
2023-01-29T10:32:34.106Z,-0.33
2023-01-29T10:35:28.200Z,-0.24
2023-01-29T10:38:02.064Z,-0.17
2023-01-29T10:40:29.312Z,-0.11
2023-01-29T10:43:20.429Z,-0.05
2023-01-29T10:45:57.523Z,0.01
2023-01-29T10:48:39.348Z,0.05
2023-01-29T10:51:41.915Z,0.07
2023-01-29T10:54:17.328Z,0.11
2023-01-29T10:57:07.354Z,0.13
2023-01-29T10:59:54.716Z,0.07
2023-01-29T11:02:22.837Z,0.02
2023-01-29T11:04:50.044Z,-0.03
2023-01-29T11:07:18.449Z,-0.05
2023-01-29T11:09:48.475Z,-0.08
2023-01-29T11:12:16.946Z,-0.10
2023-01-29T11:14:51.961Z,-0.04
2023-01-29T11:17:27.176Z,-0.01
2023-01-29T11:19:58.109Z,-0.02
2023-01-29T11:22:50.506Z,-0.06
2023-01-29T11:25:19.067Z,-0.06
2023-01-29T11:27:54.963Z,-0.04
2023-01-29T11:30:30.785Z,-0.01
2023-01-29T11:33:01.062Z,0.04
2023-01-29T11:35:30.434Z,0.09
2023-01-29T11:38:06.985Z,0.15
2023-01-29T11:40:36.727Z,0.17
2023-01-29T11:43:13.777Z,0.22
2023-01-29T11:45:41.027Z,0.25
2023-01-29T11:48:14.559Z,0.20
2023-01-29T11:50:41.481Z,0.07
2023-01-29T11:53:23.644Z,-0.07
2023-01-29T11:55:56.033Z,-0.14
2023-01-29T11:58:34.677Z,-0.19
2023-01-29T12:01:02.896Z,-0.20
2023-01-29T12:03:45.065Z,-0.18
2023-01-29T12:06:34.101Z,-0.10
2023-01-29T12:09:02.671Z,0.00
2023-01-29T12:11:33.854Z,0.05
2023-01-29T12:14:01.877Z,0.03
2023-01-29T12:16:29.054Z,0.00
2023-01-29T12:19:14.840Z,-0.08
2023-01-29T12:21:53.090Z,-0.16
2023-01-29T12:24:46.755Z,-0.25
2023-01-29T12:27:23.027Z,-0.28
2023-01-29T12:29:53.123Z,-0.34
2023-01-29T12:32:38.560Z,-0.38
2023-01-29T12:35:28.246Z,-0.43
2023-01-29T12:38:01.065Z,-0.46
2023-01-29T12:40:34.934Z,-0.43
2023-01-29T12:43:05.912Z,-0.38
2023-01-29T12:45:38.747Z,-0.33
2023-01-29T12:48:08.708Z,-0.39
2023-01-29T12:51:08.093Z,-0.42
2023-01-29T12:53:39.074Z,-0.44
2023-01-29T12:56:18.347Z,-0.52
2023-01-29T12:58:51.323Z,-0.57
2023-01-29T13:01:18.875Z,-0.64
2023-01-29T13:03:50.498Z,-0.68
2023-01-29T13:06:20.695Z,-0.69
2023-01-29T13:08:58.757Z,-0.66
2023-01-29T13:11:28.478Z,-0.67
2023-01-29T13:13:59.781Z,-0.70
2023-01-29T13:16:39.668Z,-0.72
2023-01-29T13:19:45.626Z,-0.71
2023-01-29T13:22:35.535Z,-0.68
2023-01-29T13:25:05.652Z,-0.66
2023-01-29T13:27:47.967Z,-0.64
2023-01-29T13:30:38.078Z,-0.61
2023-01-29T13:33:12.811Z,-0.57
2023-01-29T13:35:50.361Z,-0.55
2023-01-29T13:38:24.044Z,-0.55
2023-01-29T13:41:00.597Z,-0.59
2023-01-29T13:43:28.861Z,-0.64
2023-01-29T13:45:56.295Z,-0.65
2023-01-29T13:49:05.169Z,-0.68
2023-01-29T13:51:47.499Z,-0.73
2023-01-29T13:54:18.387Z,-0.75
2023-01-29T13:57:06.305Z,-0.73
2023-01-29T13:59:51.227Z,-0.70
2023-01-29T14:02:28.727Z,-0.66
2023-01-29T14:05:18.064Z,-0.65
2023-01-29T14:07:45.358Z,-0.64
2023-01-29T14:10:14.356Z,-0.63
2023-01-29T14:12:52.262Z,-0.61
2023-01-29T14:15:31.575Z,-0.63
2023-01-29T14:18:06.476Z,-0.64
2023-01-29T14:20:48.800Z,-0.65
2023-01-29T14:23:31.570Z,-0.64
2023-01-29T14:26:03.383Z,-0.63
2023-01-29T14:28:53.082Z,-0.68
2023-01-29T14:31:29.616Z,-0.70
2023-01-29T14:34:01.671Z,-0.70
2023-01-29T14:37:00.588Z,-0.69
2023-01-29T14:39:39.359Z,-0.71
2023-01-29T14:42:19.975Z,-0.70
2023-01-29T14:44:57.461Z,-0.71
2023-01-29T14:47:37.409Z,-0.74
2023-01-29T14:50:22.904Z,-0.76
2023-01-29T14:53:23.265Z,-0.73
2023-01-29T14:56:02.054Z,-0.72
2023-01-29T14:58:31.148Z,-0.72
2023-01-29T15:01:01.057Z,-0.75
2023-01-29T15:03:36.961Z,-0.74
2023-01-29T15:06:05.338Z,-0.73
2023-01-29T15:08:39.344Z,-0.74
2023-01-29T15:11:33.641Z,-0.75
2023-01-29T15:14:16.938Z,-0.77
2023-01-29T15:16:46.403Z,-0.75
2023-01-29T15:19:28.909Z,-0.74
2023-01-29T15:22:12.586Z,-0.75
2023-01-29T15:24:41.702Z,-0.76
2023-01-29T15:27:20.356Z,-0.78
2023-01-29T15:29:58.151Z,-0.77
2023-01-29T15:39:43.996Z,-0.91
2023-01-29T15:42:16.038Z,-0.95
2023-01-29T15:44:50.321Z,-0.97
2023-01-29T15:47:31.701Z,-0.94
2023-01-29T15:50:24.935Z,-0.97
2023-01-29T15:53:00.700Z,-1.01
2023-01-29T15:59:09.695Z,-1.04
2023-01-29T16:01:55.597Z,-1.02
2023-01-29T16:05:02.328Z,-1.03
2023-01-29T16:08:27.890Z,-1.03
2023-01-29T16:11:07.630Z,-1.04
2023-01-29T16:13:46.450Z,-1.05
2023-01-29T16:16:46.396Z,-1.06
2023-01-29T16:19:53.002Z,-1.07
2023-01-29T16:23:26.461Z,-1.10
2023-01-29T16:26:18.655Z,-1.13
2023-01-29T16:28:55.612Z,-1.13
2023-01-29T16:31:26.269Z,-1.13
2023-01-29T16:33:56.147Z,-1.14
2023-01-29T16:36:24.984Z,-1.14
2023-01-29T16:38:58.089Z,-1.13
2023-01-29T16:41:27.457Z,-1.11
2023-01-29T16:43:58.735Z,-1.09
2023-01-29T16:46:46.093Z,-1.10
2023-01-29T16:49:26.233Z,-1.10
2023-01-29T16:51:58.062Z,-1.10
2023-01-29T16:54:27.132Z,-1.11
2023-01-29T16:57:00.099Z,-1.12
2023-01-29T16:59:38.158Z,-1.11
2023-01-29T17:02:25.822Z,-1.06
2023-01-29T17:04:59.047Z,-1.06
2023-01-29T17:07:26.596Z,-1.05
2023-01-29T17:09:55.812Z,-1.05
2023-01-29T17:12:26.714Z,-1.05
2023-01-29T17:14:58.819Z,-1.06
2023-01-29T17:17:30.813Z,-1.07
2023-01-29T17:19:59.671Z,-1.09
2023-01-29T17:22:27.029Z,-1.11
2023-01-29T17:24:58.241Z,-1.23
2023-01-29T17:27:34.561Z,-1.12
2023-01-29T17:30:02.445Z,-1.12
2023-01-29T17:32:44.725Z,-1.12
2023-01-29T17:35:15.196Z,-1.12
2023-01-29T17:37:42.902Z,-1.13
2023-01-29T17:40:24.161Z,-1.17
2023-01-29T17:42:51.383Z,-1.18
2023-01-29T17:45:19.170Z,-1.14
2023-01-29T17:47:49.608Z,-1.11
2023-01-29T17:50:25.741Z,-1.08
2023-01-29T17:52:54.180Z,-1.07
2023-01-29T17:55:22.130Z,-1.07
2023-01-29T17:57:49.347Z,-1.06
2023-01-29T18:00:19.598Z,-1.05
2023-01-29T18:02:46.743Z,-1.06
2023-01-29T18:05:14.846Z,-1.08
2023-01-29T18:07:44.683Z,-1.12
2023-01-29T18:10:21.671Z,-1.13
2023-01-29T18:12:52.494Z,-1.17
2023-01-29T18:18:56.002Z,-1.11
2023-01-29T18:21:26.128Z,-1.08
2023-01-29T18:23:53.622Z,-1.06
2023-01-29T18:27:00.573Z,-1.07
2023-01-29T18:30:17.070Z,-1.10
2023-01-29T18:32:49.398Z,-1.13
2023-01-29T18:35:22.578Z,-1.11
2023-01-29T18:38:17.440Z,-1.16
2023-01-29T18:40:45.696Z,-1.10
2023-01-29T18:43:13.806Z,-1.09
2023-01-29T18:45:44.604Z,-1.05
2023-01-29T18:48:20.198Z,-1.03
2023-01-29T18:55:14.441Z,-0.97
2023-01-29T19:01:49.820Z,-0.95
2023-01-29T19:25:22.552Z,-0.79
2023-01-29T19:28:04.815Z,-0.83
2023-01-29T19:30:39.551Z,-0.80
2023-01-29T20:24:20.375Z,-0.85
2023-01-29T20:32:04.465Z,-0.87
2023-01-29T20:44:57.157Z,-0.92
2023-01-29T20:47:24.436Z,-0.97
2023-01-29T20:49:51.446Z,-1.00
2023-01-29T20:52:30.559Z,-1.00
2023-01-29T20:54:58.704Z,-1.02
2023-01-29T20:57:28.364Z,-1.02
2023-01-29T20:59:55.459Z,-0.99
2023-01-29T21:02:24.982Z,-0.99
2023-01-29T21:04:52.049Z,-0.99
2023-01-29T21:07:20.821Z,-1.00
2023-01-29T21:09:48.195Z,-0.99
2023-01-29T21:12:19.991Z,-0.98
2023-01-29T21:14:47.280Z,-1.01
2023-01-29T21:17:26.685Z,-1.03
2023-01-29T21:19:57.348Z,-1.03
2023-01-29T21:22:24.493Z,-1.00
2023-01-29T21:24:59.565Z,-0.99
2023-01-29T21:27:37.764Z,-0.99
2023-01-29T21:30:05.118Z,-1.00
2023-01-29T21:32:32.828Z,-1.00
2023-01-29T21:35:00.281Z,-1.01
2023-01-29T21:37:37.660Z,-1.04
2023-01-29T21:40:05.668Z,-1.05
2023-01-29T21:46:41.258Z,-1.05
2023-01-29T21:49:19.502Z,-1.07
2023-01-29T21:52:17.944Z,-1.10
2023-01-29T21:55:37.047Z,-1.10
2023-01-29T21:58:31.177Z,-1.10
2023-01-29T22:01:18.222Z,-1.11
2023-01-29T22:04:58.268Z,-1.12
